Observation data for Knox City on 03/09/2018      Previous  Date  Next       Current Mesonet Observations  Soil Data  Daily Summary Page  Observations in Plain Language
KKN1 090600Z 19013KT 13/M07 A299 RMK A01 T01321067  RH  025%=      5-min Rain = 0
KKN1 090605Z 19012KT 13/M07 A299 RMK A01 T01311066  RH  025%=      5-min Rain = 0
KKN1 090610Z 19012KT 13/M06 A299 RMK A01 T01301064  RH  026%=      5-min Rain = 0
KKN1 090615Z 19012KT 13/M06 A299 RMK A01 T01281063  RH  026%=      5-min Rain = 0
KKN1 090620Z 19011KT 13/M06 A299 RMK A01 T01271061  RH  027%=      5-min Rain = 0
KKN1 090625Z 19012KT 13/M06 A299 RMK A01 T01271059  RH  027%=      5-min Rain = 0
KKN1 090630Z 19012G18KT 13/M06 A2989 RMK A01 T01271057  RH  028%=      5-min Rain = 0
KKN1 090635Z 19012G17KT 13/M06 A2989 RMK A01 T01271055  RH  028%=      5-min Rain = 0
KKN1 090640Z 19011KT 12/M05 A2989 RMK A01 T01241053  RH  029%=      5-min Rain = 0
KKN1 090645Z 19011KT 12/M05 A2989 RMK A01 T01241051  RH  029%=      5-min Rain = 0
KKN1 090650Z 19011KT 12/M05 A2989 RMK A01 T01231050  RH  030%=      5-min Rain = 0
KKN1 090655Z 20010KT 12/M05 A2989 RMK A01 T01221049  RH  030%=      5-min Rain = 0
KKN1 090700Z 20011KT 12/M05 A2989 RMK A01 T01201047  RH  031%=      5-min Rain = 0
KKN1 090705Z 20010KT 12/M05 A2989 RMK A01 T01191046  RH  032%=      5-min Rain = 0
KKN1 090710Z 20009KT 12/M05 A2989 RMK A01 T01151046  RH  032%=      5-min Rain = 0
KKN1 090715Z 19009KT 11/M05 A2989 RMK A01 T01111045  RH  033%=      5-min Rain = 0
KKN1 090720Z 19010KT 11/M04 A2989 RMK A01 T01121044  RH  034%=      5-min Rain = 0
KKN1 090725Z 19010KT 11/M04 A2989 RMK A01 T01111043  RH  034%=      5-min Rain = 0
KKN1 090730Z 19009KT 11/M04 A2989 RMK A01 T01101042  RH  035%=      5-min Rain = 0
KKN1 090735Z 20009KT 11/M04 A2989 RMK A01 T01051041  RH  036%=      5-min Rain = 0
KKN1 090740Z 20008KT 10/M04 A2989 RMK A01 T01031040  RH  037%=      5-min Rain = 0
KKN1 090745Z 21008KT 10/M04 A2988 RMK A01 T00991040  RH  038%=      5-min Rain = 0
KKN1 090750Z 21008KT 10/M04 A2988 RMK A01 T00951041  RH  039%=      5-min Rain = 0
KKN1 090755Z 21009KT 10/M04 A2988 RMK A01 T00991041  RH  037%=      5-min Rain = 0
KKN1 090800Z 21009KT 10/M04 A2988 RMK A01 T01031041  RH  036%=      5-min Rain = 0
KKN1 090805Z 21009KT 10/M04 A2988 RMK A01 T01031041  RH  037%=      5-min Rain = 0
KKN1 090810Z 21009KT 10/M04 A2988 RMK A01 T01021041  RH  037%=      5-min Rain = 0
KKN1 090815Z 21009KT 10/M04 A2988 RMK A01 T01011040  RH  037%=      5-min Rain = 0
KKN1 090820Z 21009KT 10/M04 A2988 RMK A01 T00981039  RH  038%=      5-min Rain = 0
KKN1 090825Z 21009KT 10/M04 A2988 RMK A01 T00971038  RH  039%=      5-min Rain = 0
KKN1 090830Z 21010KT 10/M04 A2987 RMK A01 T00971037  RH  039%=      5-min Rain = 0
KKN1 090835Z 21009KT 10/M04 A2987 RMK A01 T00971037  RH  039%=      5-min Rain = 0
KKN1 090840Z 21009KT 10/M04 A2987 RMK A01 T00951036  RH  040%=      5-min Rain = 0
KKN1 090845Z 21009KT 09/M04 A2987 RMK A01 T00941035  RH  041%=      5-min Rain = 0
KKN1 090850Z 21009KT 09/M03 A2987 RMK A01 T00931034  RH  041%=      5-min Rain = 0
KKN1 090855Z 21010KT 09/M03 A2986 RMK A01 T00931032  RH  042%=      5-min Rain = 0
KKN1 090900Z 21010KT 09/M03 A2986 RMK A01 T00931029  RH  042%=      5-min Rain = 0
KKN1 090905Z 21010KT 09/M03 A2986 RMK A01 T00941027  RH  043%=      5-min Rain = 0
KKN1 090910Z 21010KT 09/M03 A2986 RMK A01 T00941025  RH  044%=      5-min Rain = 0
KKN1 090915Z 20010KT 09/M02 A2986 RMK A01 T00941023  RH  044%=      5-min Rain = 0
KKN1 090920Z 21010KT 09/M02 A2985 RMK A01 T00931022  RH  045%=      5-min Rain = 0
KKN1 090925Z 21010KT 09/M02 A2985 RMK A01 T00931021  RH  045%=      5-min Rain = 0
KKN1 090930Z 21010KT 09/M02 A2985 RMK A01 T00931019  RH  046%=      5-min Rain = 0
KKN1 090935Z 21010KT 09/M02 A2985 RMK A01 T00941018  RH  046%=      5-min Rain = 0
KKN1 090940Z 21010KT 09/M02 A2985 RMK A01 T00931017  RH  046%=      5-min Rain = 0
KKN1 090945Z 21009KT 09/M02 A2985 RMK A01 T00921016  RH  047%=      5-min Rain = 0
KKN1 090950Z 21009KT 09/M02 A2984 RMK A01 T00911015  RH  048%=      5-min Rain = 0
KKN1 090955Z 21008KT 09/M01 A2985 RMK A01 T00901014  RH  048%=      5-min Rain = 0
KKN1 091000Z 21008KT 09/M01 A2985 RMK A01 T00881014  RH  049%=      5-min Rain = 0
KKN1 091005Z 21008KT 09/M01 A2985 RMK A01 T00851013  RH  051%=      5-min Rain = 0
KKN1 091010Z 21008KT 08/M01 A2985 RMK A01 T00821013  RH  052%=      5-min Rain = 0
KKN1 091015Z 21008KT 08/M01 A2985 RMK A01 T00811012  RH  052%=      5-min Rain = 0
KKN1 091020Z 21009KT 08/M01 A2984 RMK A01 T00841009  RH  053%=      5-min Rain = 0
KKN1 091025Z 21009KT 09/M00 A2984 RMK A01 T00901003  RH  053%=      5-min Rain = 0
KKN1 091030Z 22010KT 10/00 A2984 RMK A01 T00970002  RH  052%=      5-min Rain = 0
KKN1 091035Z 22011KT 10/01 A2984 RMK A01 T01030006  RH  052%=      5-min Rain = 0
KKN1 091040Z 22011KT 11/01 A2984 RMK A01 T01070009  RH  051%=      5-min Rain = 0
KKN1 091045Z 22011KT 11/01 A2984 RMK A01 T01080010  RH  052%=      5-min Rain = 0
KKN1 091050Z 22010KT 11/01 A2984 RMK A01 T01070011  RH  052%=      5-min Rain = 0
KKN1 091055Z 21010KT 11/01 A2984 RMK A01 T01060011  RH  053%=      5-min Rain = 0
KKN1 091100Z 21010KT 11/01 A2984 RMK A01 T01050012  RH  053%=      5-min Rain = 0
KKN1 091105Z 21009KT 11/01 A2984 RMK A01 T01050012  RH  053%=      5-min Rain = 0
KKN1 091110Z 21009KT 10/01 A2984 RMK A01 T01030013  RH  054%=      5-min Rain = 0
KKN1 091115Z 20009KT 10/01 A2984 RMK A01 T01010014  RH  055%=      5-min Rain = 0
KKN1 091120Z 20009KT 10/02 A2984 RMK A01 T01000015  RH  056%=      5-min Rain = 0
KKN1 091125Z 21008KT 10/02 A2984 RMK A01 T00980015  RH  057%=      5-min Rain = 0
KKN1 091130Z 21008KT 10/02 A2984 RMK A01 T00980016  RH  057%=      5-min Rain = 0
KKN1 091135Z 20007KT 10/02 A2984 RMK A01 T00970017  RH  058%=      5-min Rain = 0
KKN1 091140Z 20008KT 10/02 A2984 RMK A01 T00960019  RH  059%=      5-min Rain = 0
KKN1 091145Z 20008KT 10/02 A2984 RMK A01 T00980020  RH  059%=      5-min Rain = 0
KKN1 091150Z 20008KT 10/02 A2984 RMK A01 T00990022  RH  059%=      5-min Rain = 0
KKN1 091155Z 20008KT 10/02 A2984 RMK A01 T00980023  RH  060%=      5-min Rain = 0
KKN1 091200Z 20008KT 10/02 A2984 RMK A01 T00970024  RH  061%=      5-min Rain = 0
KKN1 091205Z 20009KT 10/03 A2984 RMK A01 T00970026  RH  062%=      5-min Rain = 0
KKN1 091210Z 20011KT 10/03 A2983 RMK A01 T00980028  RH  062%=      5-min Rain = 0
KKN1 091215Z 20012KT 10/03 A2983 RMK A01 T00990029  RH  063%=      5-min Rain = 0
KKN1 091220Z 20013KT 10/03 A2983 RMK A01 T01010031  RH  062%=      5-min Rain = 0
KKN1 091225Z 20012KT 10/03 A2983 RMK A01 T01000031  RH  063%=      5-min Rain = 0
KKN1 091230Z 20011KT 10/03 A2983 RMK A01 T00990032  RH  064%=      5-min Rain = 0
KKN1 091235Z 21011KT 10/03 A2983 RMK A01 T00990033  RH  064%=      5-min Rain = 0
KKN1 091240Z 21011KT 10/03 A2983 RMK A01 T00990033  RH  064%=      5-min Rain = 0
KKN1 091245Z 21011KT 10/03 A2983 RMK A01 T00990034  RH  065%=      5-min Rain = 0
KKN1 091250Z 21011KT 10/03 A2983 RMK A01 T00990034  RH  065%=      5-min Rain = 0
KKN1 091255Z 21011G16KT 10/04 A2983 RMK A01 T00990036  RH  065%=      5-min Rain = 0
KKN1 091300Z 21012KT 10/04 A2983 RMK A01 T01000036  RH  065%=      5-min Rain = 0
KKN1 091305Z 21012KT 10/04 A2983 RMK A01 T01010037  RH  065%=      5-min Rain = 0
KKN1 091310Z 21011KT 10/04 A2983 RMK A01 T01000037  RH  066%=      5-min Rain = 0
KKN1 091315Z 20010KT 10/04 A2983 RMK A01 T00990037  RH  066%=      5-min Rain = 0
KKN1 091320Z 20009KT 10/04 A2983 RMK A01 T00970037  RH  067%=      5-min Rain = 0
KKN1 091325Z 20008KT 10/04 A2984 RMK A01 T00950038  RH  068%=      5-min Rain = 0
KKN1 091330Z 20008KT 10/04 A2984 RMK A01 T00950039  RH  068%=      5-min Rain = 0
KKN1 091335Z 20008KT 10/04 A2984 RMK A01 T00970040  RH  069%=      5-min Rain = 0
KKN1 091340Z 20008KT 10/04 A2984 RMK A01 T00990042  RH  068%=      5-min Rain = 0
KKN1 091345Z 21008KT 10/04 A2984 RMK A01 T01030044  RH  068%=      5-min Rain = 0
KKN1 091350Z 21008KT 11/05 A2984 RMK A01 T01070046  RH  067%=      5-min Rain = 0
KKN1 091355Z 21009KT 11/05 A2984 RMK A01 T01100048  RH  066%=      5-min Rain = 0
KKN1 091400Z 21010KT 11/05 A2984 RMK A01 T01140049  RH  065%=      5-min Rain = 0
KKN1 091405Z 21011KT 12/05 A2984 RMK A01 T01170051  RH  065%=      5-min Rain = 0
KKN1 091410Z 21011KT 12/05 A2984 RMK A01 T01200052  RH  064%=      5-min Rain = 0
KKN1 091415Z 21013KT 12/05 A2984 RMK A01 T01230054  RH  063%=      5-min Rain = 0
KKN1 091420Z 21013KT 13/06 A2984 RMK A01 T01250055  RH  063%=      5-min Rain = 0
KKN1 091425Z 21014KT 13/06 A2984 RMK A01 T01270056  RH  063%=      5-min Rain = 0
KKN1 091430Z 21014KT 13/06 A2984 RMK A01 T01290056  RH  062%=      5-min Rain = 0
KKN1 091435Z 21013KT 13/06 A2984 RMK A01 T01320058  RH  062%=      5-min Rain = 0
KKN1 091440Z 21013KT 13/06 A2984 RMK A01 T01340058  RH  061%=      5-min Rain = 0
KKN1 091445Z 21014KT 14/06 A2984 RMK A01 T01350058  RH  061%=      5-min Rain = 0
KKN1 091450Z 21014G23KT 14/06 A2984 RMK A01 T01380059  RH  060%=      5-min Rain = 0
KKN1 091455Z 21016KT 14/06 A2984 RMK A01 T01400060  RH  059%=      5-min Rain = 0
KKN1 091500Z 21015KT 14/06 A2984 RMK A01 T01420061  RH  059%=      5-min Rain = 0
KKN1 091505Z 21014KT 15/06 A2984 RMK A01 T01460062  RH  058%=      5-min Rain = 0
KKN1 091510Z 22015G21KT 15/06 A2984 RMK A01 T01490063  RH  057%=      5-min Rain = 0
KKN1 091515Z 22017G24KT 15/06 A2984 RMK A01 T01530063  RH  056%=      5-min Rain = 0
KKN1 091520Z 22018KT 15/06 A2984 RMK A01 T01540063  RH  056%=      5-min Rain = 0
KKN1 091525Z 22015G24KT 16/06 A2984 RMK A01 T01580064  RH  054%=      5-min Rain = 0
KKN1 091530Z 22019G26KT 16/06 A2983 RMK A01 T01600064  RH  054%=      5-min Rain = 0
KKN1 091535Z 22019G24KT 16/07 A2983 RMK A01 T01630065  RH  053%=      5-min Rain = 0
KKN1 091540Z 22019G25KT 17/06 A2983 RMK A01 T01650064  RH  052%=      5-min Rain = 0
KKN1 091545Z 21020KT 17/07 A2983 RMK A01 T01680065  RH  051%=      5-min Rain = 0
KKN1 091550Z 22019KT 17/07 A2982 RMK A01 T01700065  RH  051%=      5-min Rain = 0
KKN1 091555Z 22019G24KT 17/07 A2982 RMK A01 T01720065  RH  050%=      5-min Rain = 0
KKN1 091600Z 22018KT 18/07 A2982 RMK A01 T01760065  RH  049%=      5-min Rain = 0
KKN1 091605Z 22017KT 18/07 A2982 RMK A01 T01780066  RH  049%=      5-min Rain = 0
KKN1 091610Z 23016G21KT 18/07 A2982 RMK A01 T01800066  RH  048%=      5-min Rain = 0
KKN1 091615Z 23014G19KT 18/07 A2982 RMK A01 T01820067  RH  048%=      5-min Rain = 0
KKN1 091620Z 22015KT 19/07 A2982 RMK A01 T01880066  RH  046%=      5-min Rain = 0
KKN1 091625Z 22014KT 19/07 A2982 RMK A01 T01920067  RH  045%=      5-min Rain = 0
KKN1 091630Z 22014KT 19/07 A2982 RMK A01 T01930066  RH  044%=      5-min Rain = 0
KKN1 091635Z 22014G21KT 19/07 A2982 RMK A01 T01930066  RH  044%=      5-min Rain = 0
KKN1 091640Z 22012G18KT 20/07 A2982 RMK A01 T02000067  RH  042%=      5-min Rain = 0
KKN1 091645Z 23013KT 20/07 A2982 RMK A01 T02030065  RH  041%=      5-min Rain = 0
KKN1 091650Z 22014KT 20/06 A2982 RMK A01 T02020063  RH  041%=      5-min Rain = 0
KKN1 091655Z 22014G19KT 21/06 A2981 RMK A01 T02080061  RH  039%=      5-min Rain = 0
KKN1 091700Z 23013G18KT 21/06 A2981 RMK A01 T02080059  RH  038%=      5-min Rain = 0
KKN1 091705Z 22014G19KT 21/06 A2981 RMK A01 T02110060  RH  038%=      5-min Rain = 0
KKN1 091710Z 22012G18KT 21/06 A2981 RMK A01 T02140059  RH  037%=      5-min Rain = 0
KKN1 091715Z 23014G19KT 22/05 A2981 RMK A01 T02170051  RH  034%=      5-min Rain = 0
KKN1 091720Z 23014G19KT 22/05 A2981 RMK A01 T02180051  RH  034%=      5-min Rain = 0
KKN1 091725Z 21013G19KT 22/06 A298 RMK A01 T02200055  RH  035%=      5-min Rain = 0
KKN1 091730Z 22013KT 22/05 A298 RMK A01 T02240054  RH  034%=      5-min Rain = 0
KKN1 091735Z 21012G17KT 23/05 A298 RMK A01 T02250054  RH  033%=      5-min Rain = 0
KKN1 091740Z 22011G17KT 23/05 A298 RMK A01 T02260053  RH  033%=      5-min Rain = 0
KKN1 091745Z 22012G18KT 23/05 A298 RMK A01 T02290051  RH  032%=      5-min Rain = 0
KKN1 091750Z 22012G17KT 24/05 A298 RMK A01 T02350053  RH  031%=      5-min Rain = 0
KKN1 091755Z 23011G16KT 23/05 A298 RMK A01 T02340047  RH  030%=      5-min Rain = 0
KKN1 091800Z 21014G27KT 23/05 A2979 RMK A01 T02340049  RH  030%=      5-min Rain = 0
KKN1 091805Z 23012G20KT 24/05 A2979 RMK A01 T02380048  RH  030%=      5-min Rain = 0
KKN1 091810Z 22012G17KT 24/05 A2979 RMK A01 T02400048  RH  029%=      5-min Rain = 0
KKN1 091815Z 21013KT 24/05 A2978 RMK A01 T02390049  RH  030%=      5-min Rain = 0
KKN1 091820Z 23013G18KT 24/04 A2978 RMK A01 T02400043  RH  028%=      5-min Rain = 0
KKN1 091825Z 22015G21KT 24/04 A2978 RMK A01 T02390042  RH  028%=      5-min Rain = 0
KKN1 091830Z 22014KT 24/04 A2978 RMK A01 T02430042  RH  027%=      5-min Rain = 0
KKN1 091835Z 22014G19KT 24/04 A2977 RMK A01 T02440042  RH  027%=      5-min Rain = 0
KKN1 091840Z 23014KT 24/04 A2977 RMK A01 T02440039  RH  027%=      5-min Rain = 0
KKN1 091845Z 22013G18KT 25/04 A2977 RMK A01 T02470038  RH  026%=      5-min Rain = 0
KKN1 091850Z 23014G19KT 25/04 A2977 RMK A01 T02470037  RH  026%=      5-min Rain = 0
KKN1 091855Z 22013G18KT 25/04 A2976 RMK A01 T02490037  RH  026%=      5-min Rain = 0
KKN1 091900Z 21014G19KT 25/04 A2976 RMK A01 T02540035  RH  024%=      5-min Rain = 0
KKN1 091905Z 22013KT 26/03 A2975 RMK A01 T02560032  RH  024%=      5-min Rain = 0
KKN1 091910Z 22012KT 26/04 A2975 RMK A01 T02600038  RH  024%=      5-min Rain = 0
KKN1 091915Z 21015KT 27/04 A2975 RMK A01 T02650038  RH  023%=      5-min Rain = 0
KKN1 091920Z 21014KT 26/04 A2974 RMK A01 T02630038  RH  024%=      5-min Rain = 0
KKN1 091925Z 21011KT 26/04 A2974 RMK A01 T02640039  RH  024%=      5-min Rain = 0
KKN1 091930Z 22012G17KT 26/02 A2974 RMK A01 T02640024  RH  021%=      5-min Rain = 0
KKN1 091935Z 21011G16KT 27/02 A2973 RMK A01 T02680022  RH  021%=      5-min Rain = 0
KKN1 091940Z 21012G19KT 27/03 A2973 RMK A01 T02730026  RH  021%=      5-min Rain = 0
KKN1 091945Z 22012G17KT 27/02 A2973 RMK A01 T02710021  RH  020%=      5-min Rain = 0
KKN1 091950Z 22012G22KT 27/02 A2973 RMK A01 T02740020  RH  020%=      5-min Rain = 0
KKN1 091955Z 21014KT 28/01 A2972 RMK A01 T02760014  RH  019%=      5-min Rain = 0
KKN1 092000Z 23013G18KT 28/01 A2972 RMK A01 T02770006  RH  017%=      5-min Rain = 0
KKN1 092005Z 23013G18KT 28/01 A2972 RMK A01 T02770006  RH  017%=      5-min Rain = 0
KKN1 092010Z 21014G19KT 28/01 A2972 RMK A01 T02770014  RH  018%=      5-min Rain = 0
KKN1 092015Z 21013G20KT 27/02 A2972 RMK A01 T02740018  RH  019%=      5-min Rain = 0
KKN1 092020Z 21014KT 28/01 A2971 RMK A01 T02770014  RH  018%=      5-min Rain = 0
KKN1 092025Z 21013G18KT 28/01 A2971 RMK A01 T02770011  RH  018%=      5-min Rain = 0
KKN1 092030Z 22013KT 28/01 A2971 RMK A01 T02760012  RH  018%=      5-min Rain = 0
KKN1 092035Z 21012KT 28/01 A2971 RMK A01 T02770010  RH  018%=      5-min Rain = 0
KKN1 092040Z 21011KT 28/00 A297 RMK A01 T028300-0  RH  016%=      5-min Rain = 0
KKN1 092045Z 21010KT 28/M01 A297 RMK A01 T02841005  RH  015%=      5-min Rain = 0
KKN1 092050Z 22012KT 28/M01 A297 RMK A01 T02831014  RH  014%=      5-min Rain = 0
KKN1 092055Z 21011KT 29/M01 A297 RMK A01 T02861012  RH  014%=      5-min Rain = 0
KKN1 092100Z 24010G17KT 28/M01 A297 RMK A01 T02801013  RH  015%=      5-min Rain = 0
KKN1 092105Z 23009G14KT 28/M01 A2969 RMK A01 T02811009  RH  015%=      5-min Rain = 0
KKN1 092110Z 22011KT 28/00 A2969 RMK A01 T02830000  RH  016%=      5-min Rain = 0
KKN1 092115Z 21014KT 28/M00 A2969 RMK A01 T02831002  RH  016%=      5-min Rain = 0
KKN1 092120Z 20011G18KT 28/M01 A2969 RMK A01 T02801005  RH  016%=      5-min Rain = 0
KKN1 092125Z 22012G18KT 28/M01 A2969 RMK A01 T02801009  RH  015%=      5-min Rain = 0
KKN1 092130Z 20013KT 28/M01 A2969 RMK A01 T02791009  RH  015%=      5-min Rain = 0
KKN1 092135Z 21012KT 28/M01 A2969 RMK A01 T02781012  RH  015%=      5-min Rain = 0
KKN1 092140Z 21012KT 28/M01 A2969 RMK A01 T02781012  RH  015%=      5-min Rain = 0
KKN1 092145Z 22013KT 28/M01 A2969 RMK A01 T02751012  RH  015%=      5-min Rain = 0
KKN1 092150Z 21014KT 28/M01 A2969 RMK A01 T02751013  RH  015%=      5-min Rain = 0
KKN1 092155Z 21013KT 28/M01 A2969 RMK A01 T02751011  RH  016%=      5-min Rain = 0
KKN1 092200Z 21012KT 28/M01 A2969 RMK A01 T02781011  RH  015%=      5-min Rain = 0
KKN1 092205Z 22012G17KT 28/M01 A2969 RMK A01 T02801011  RH  015%=      5-min Rain = 0
KKN1 092210Z 22012KT 28/M01 A2969 RMK A01 T02831012  RH  015%=      5-min Rain = 0
KKN1 092215Z 20012G17KT 28/M01 A2969 RMK A01 T02821013  RH  015%=      5-min Rain = 0
KKN1 092220Z 21013KT 28/M02 A2969 RMK A01 T02811015  RH  015%=      5-min Rain = 0
KKN1 092225Z 21012G17KT 28/M02 A2969 RMK A01 T02781018  RH  015%=      5-min Rain = 0
KKN1 092230Z 21014KT 28/M02 A2969 RMK A01 T02761016  RH  015%=      5-min Rain = 0
KKN1 092235Z 21012KT 28/M02 A2969 RMK A01 T02801016  RH  015%=      5-min Rain = 0
KKN1 092240Z 21009KT 28/M02 A2969 RMK A01 T02831016  RH  014%=      5-min Rain = 0
KKN1 092245Z 20010KT 28/M02 A2969 RMK A01 T02801018  RH  014%=      5-min Rain = 0
KKN1 092250Z 20010KT 28/M02 A2969 RMK A01 T02771018  RH  015%=      5-min Rain = 0
KKN1 092255Z 21011G16KT 28/M02 A2969 RMK A01 T02781024  RH  014%=      5-min Rain = 0
KKN1 092300Z 21011KT 28/M02 A2969 RMK A01 T02841020  RH  014%=      5-min Rain = 0
KKN1 092305Z 20010KT 28/M02 A2969 RMK A01 T02821020  RH  014%=      5-min Rain = 0
KKN1 092310Z 20010KT 28/M02 A2969 RMK A01 T02821016  RH  014%=      5-min Rain = 0
KKN1 092315Z 20008KT 28/M02 A2969 RMK A01 T02841018  RH  014%=      5-min Rain = 0
KKN1 092320Z 21009KT 29/M02 A2969 RMK A01 T02851022  RH  013%=      5-min Rain = 0
KKN1 092325Z 21010KT 29/M02 A2968 RMK A01 T02861021  RH  014%=      5-min Rain = 0
KKN1 092330Z 20010KT 29/M03 A2968 RMK A01 T02851025  RH  013%=      5-min Rain = 0
KKN1 092335Z 21008KT 28/M02 A2968 RMK A01 T02841020  RH  014%=      5-min Rain = 0
KKN1 092340Z 21009KT 28/M01 A2968 RMK A01 T02821014  RH  015%=      5-min Rain = 0
KKN1 092345Z 20011KT 28/M01 A2968 RMK A01 T02801012  RH  015%=      5-min Rain = 0
KKN1 092350Z 20009KT 27/M01 A2968 RMK A01 T02731011  RH  016%=      5-min Rain = 0
KKN1 092355Z 20008KT 27/M01 A2968 RMK A01 T02671008  RH  017%=      5-min Rain = 0
KKN1 100000Z 21007KT 26/M01 A2968 RMK A01 T02631008  RH  017%=      5-min Rain = 0
KKN1 100005Z 20006KT 26/M00 A2968 RMK A01 T02551004  RH  018%=      5-min Rain = 0
KKN1 100010Z 20005KT 25/00 A2968 RMK A01 T02470001  RH  020%=      5-min Rain = 0
KKN1 100015Z 19005KT 24/00 A2969 RMK A01 T02410004  RH  021%=      5-min Rain = 0
KKN1 100020Z 19004KT 23/00 A2968 RMK A01 T02330004  RH  022%=      5-min Rain = 0
KKN1 100025Z 19003KT 23/00 A2968 RMK A01 T02320001  RH  022%=      5-min Rain = 0
KKN1 100030Z 16004KT 22/01 A2968 RMK A01 T02220010  RH  025%=      5-min Rain = 0
KKN1 100035Z 14004KT 21/01 A2968 RMK A01 T02120013  RH  027%=      5-min Rain = 0
KKN1 100040Z 13005KT 21/01 A2968 RMK A01 T02090009  RH  027%=      5-min Rain = 0
KKN1 100045Z 13005KT 21/01 A2968 RMK A01 T02070008  RH  027%=      5-min Rain = 0
KKN1 100050Z 11005KT 20/01 A2968 RMK A01 T02030008  RH  028%=      5-min Rain = 0
KKN1 100055Z 11005KT 20/01 A2968 RMK A01 T01970009  RH  029%=      5-min Rain = 0
KKN1 100100Z 11005KT 20/01 A2968 RMK A01 T01980006  RH  028%=      5-min Rain = 0
KKN1 100105Z 11005KT 20/01 A2968 RMK A01 T02010005  RH  027%=      5-min Rain = 0
KKN1 100110Z 12005KT 20/01 A2968 RMK A01 T01950006  RH  028%=      5-min Rain = 0
KKN1 100115Z 11006KT 19/00 A2968 RMK A01 T01940004  RH  028%=      5-min Rain = 0
KKN1 100120Z 09005KT 20/00 A2968 RMK A01 T02030002  RH  026%=      5-min Rain = 0
KKN1 100125Z 03007G12KT 20/00 A2969 RMK A01 T02000003  RH  027%=      5-min Rain = 0
KKN1 100130Z 02009KT 21/M03 A2969 RMK A01 T02141033  RH  019%=      5-min Rain = 0
KKN1 100135Z 03007KT 22/M04 A297 RMK A01 T02221041  RH  017%=      5-min Rain = 0
KKN1 100140Z 03010G15KT 22/M05 A297 RMK A01 T02201048  RH  016%=      5-min Rain = 0
KKN1 100145Z 05007KT 22/M04 A297 RMK A01 T02181044  RH  017%=      5-min Rain = 0
KKN1 100150Z 04008KT 21/M05 A297 RMK A01 T02131045  RH  017%=      5-min Rain = 0
KKN1 100155Z 05007KT 21/M04 A297 RMK A01 T02061042  RH  019%=      5-min Rain = 0
KKN1 100200Z 05007KT 20/M04 A2971 RMK A01 T02031042  RH  019%=      5-min Rain = 0
KKN1 100205Z 06008KT 20/M04 A2971 RMK A01 T01991041  RH  020%=      5-min Rain = 0
KKN1 100210Z 05009KT 20/M04 A2971 RMK A01 T01981041  RH  020%=      5-min Rain = 0
KKN1 100215Z 04008KT 20/M04 A2972 RMK A01 T01951040  RH  020%=      5-min Rain = 0
KKN1 100220Z 05008KT 19/M04 A2972 RMK A01 T01911039  RH  021%=      5-min Rain = 0
KKN1 100225Z 04007KT 19/M04 A2972 RMK A01 T01871037  RH  022%=      5-min Rain = 0
KKN1 100230Z 04008KT 18/M04 A2972 RMK A01 T01841037  RH  022%=      5-min Rain = 0
KKN1 100235Z 04008KT 18/M04 A2972 RMK A01 T01811036  RH  023%=      5-min Rain = 0
KKN1 100240Z 04006KT 18/M04 A2973 RMK A01 T01811036  RH  023%=      5-min Rain = 0
KKN1 100245Z 04007KT 18/M04 A2973 RMK A01 T01791036  RH  023%=      5-min Rain = 0
KKN1 100250Z 04007KT 18/M04 A2973 RMK A01 T01791036  RH  023%=      5-min Rain = 0
KKN1 100255Z 03007KT 18/M04 A2973 RMK A01 T01781035  RH  023%=      5-min Rain = 0
KKN1 100300Z 02006KT 18/M04 A2973 RMK A01 T01781035  RH  023%=      5-min Rain = 0
KKN1 100305Z 02006KT 18/M04 A2973 RMK A01 T01801035  RH  023%=      5-min Rain = 0
KKN1 100310Z 02006KT 18/M03 A2973 RMK A01 T01801034  RH  023%=      5-min Rain = 0
KKN1 100315Z 02007KT 18/M03 A2973 RMK A01 T01811033  RH  023%=      5-min Rain = 0
KKN1 100320Z 03006KT 18/M03 A2973 RMK A01 T01821031  RH  024%=      5-min Rain = 0
KKN1 100325Z 02006KT 18/M03 A2973 RMK A01 T01801030  RH  024%=      5-min Rain = 0
KKN1 100330Z 03009KT 18/M03 A2973 RMK A01 T01811028  RH  024%=      5-min Rain = 0
KKN1 100335Z 03007KT 18/M03 A2973 RMK A01 T01801027  RH  025%=      5-min Rain = 0
KKN1 100340Z 03008KT 18/M03 A2973 RMK A01 T01771026  RH  025%=      5-min Rain = 0
KKN1 100345Z 03009KT 18/M03 A2973 RMK A01 T01751025  RH  026%=      5-min Rain = 0
KKN1 100350Z 04007KT 17/M03 A2973 RMK A01 T01741025  RH  026%=      5-min Rain = 0
KKN1 100355Z 04005KT 17/M02 A2973 RMK A01 T01691024  RH  027%=      5-min Rain = 0
KKN1 100400Z 06005KT 17/M02 A2973 RMK A01 T01651022  RH  028%=      5-min Rain = 0
KKN1 100405Z 05005KT 16/M02 A2973 RMK A01 T01621021  RH  029%=      5-min Rain = 0
KKN1 100410Z 04007KT 16/M02 A2973 RMK A01 T01571021  RH  030%=      5-min Rain = 0
KKN1 100415Z 04010KT 16/M02 A2973 RMK A01 T01571020  RH  030%=      5-min Rain = 0
KKN1 100420Z 04009KT 16/M02 A2973 RMK A01 T01601020  RH  030%=      5-min Rain = 0
KKN1 100425Z 05006KT 16/M02 A2973 RMK A01 T01601019  RH  030%=      5-min Rain = 0
KKN1 100430Z 04007KT 15/M02 A2973 RMK A01 T01531018  RH  031%=      5-min Rain = 0
KKN1 100435Z 05006KT 15/M02 A2973 RMK A01 T01531016  RH  031%=      5-min Rain = 0
KKN1 100440Z 05005KT 15/M02 A2973 RMK A01 T01481016  RH  033%=      5-min Rain = 0
KKN1 100445Z 05006KT 14/M02 A2973 RMK A01 T01431016  RH  034%=      5-min Rain = 0
KKN1 100450Z 04006KT 14/M02 A2973 RMK A01 T01411016  RH  034%=      5-min Rain = 0
KKN1 100455Z 03006KT 14/M02 A2973 RMK A01 T01411016  RH  034%=      5-min Rain = 0
KKN1 100500Z 03005KT 14/M02 A2973 RMK A01 T01401016  RH  034%=      5-min Rain = 0
KKN1 100505Z 03005KT 14/M02 A2973 RMK A01 T01401016  RH  034%=      5-min Rain = 0
KKN1 100510Z 03006KT 14/M02 A2972 RMK A01 T01401016  RH  034%=      5-min Rain = 0
KKN1 100515Z 02006KT 14/M02 A2972 RMK A01 T01381017  RH  035%=      5-min Rain = 0
KKN1 100520Z 01006KT 14/M02 A2972 RMK A01 T01401017  RH  034%=      5-min Rain = 0
KKN1 100525Z 01007KT 14/M02 A2972 RMK A01 T01401015  RH  035%=      5-min Rain = 0
KKN1 100530Z 01006KT 14/M02 A2972 RMK A01 T01421015  RH  034%=      5-min Rain = 0
KKN1 100535Z 01006KT 14/M02 A2972 RMK A01 T01401015  RH  035%=      5-min Rain = 0
KKN1 100540Z 01006KT 14/M01 A2973 RMK A01 T01391014  RH  035%=      5-min Rain = 0
KKN1 100545Z 01006KT 14/M01 A2973 RMK A01 T01361013  RH  036%=      5-min Rain = 0
KKN1 100550Z 00006KT 13/M01 A2973 RMK A01 T01321013  RH  037%=      5-min Rain = 0
KKN1 100555Z 01006KT 13/M01 A2973 RMK A01 T01281013  RH  038%=      5-min Rain = 0

Page generated in 0.0166 seconds.